createdAt,value
2017-09-27T00:01:22.689Z,6.27
2017-09-27T00:03:25.219Z,6.10
2017-09-27T00:05:27.656Z,5.33
2017-09-27T00:07:30.164Z,5.67
2017-09-27T00:09:32.607Z,5.13
2017-09-27T00:11:35.035Z,5.50
2017-09-27T00:13:37.578Z,5.37
2017-09-27T00:15:40.040Z,6.00
2017-09-27T00:17:42.477Z,5.67
2017-09-27T00:19:44.979Z,5.43
2017-09-27T00:21:47.430Z,5.30
2017-09-27T00:23:49.864Z,5.40
2017-09-27T00:25:52.324Z,5.67
2017-09-27T00:27:54.860Z,6.10
2017-09-27T00:29:57.300Z,4.90
2017-09-27T00:31:59.800Z,5.70
2017-09-27T00:34:02.272Z,5.10
2017-09-27T00:36:04.809Z,4.93
2017-09-27T00:38:07.273Z,5.57
2017-09-27T00:40:09.788Z,5.97
2017-09-27T00:42:12.218Z,5.80
2017-09-27T00:44:14.677Z,5.70
2017-09-27T00:46:17.116Z,5.67
2017-09-27T00:48:19.558Z,5.80
2017-09-27T00:50:22.047Z,5.37
2017-09-27T00:52:24.484Z,5.97
2017-09-27T00:54:26.976Z,4.90
2017-09-27T00:56:29.449Z,5.20
2017-09-27T00:58:31.886Z,5.20
2017-09-27T01:00:34.326Z,5.27
2017-09-27T01:02:36.780Z,5.40
2017-09-27T01:04:39.226Z,5.50
2017-09-27T01:06:41.701Z,5.70
2017-09-27T01:08:44.167Z,5.03
2017-09-27T01:10:47.559Z,5.70
2017-09-27T01:12:50.030Z,4.90
2017-09-27T01:14:52.495Z,4.73
2017-09-27T01:16:54.933Z,4.90
2017-09-27T01:18:57.363Z,4.80
2017-09-27T01:20:59.916Z,5.10
2017-09-27T01:23:02.353Z,5.67
2017-09-27T01:25:04.846Z,5.23
2017-09-27T01:27:07.318Z,5.10
2017-09-27T01:29:09.756Z,5.40
2017-09-27T01:31:12.225Z,4.77
2017-09-27T01:33:14.686Z,6.00
2017-09-27T01:35:17.123Z,5.17
2017-09-27T01:37:19.876Z,5.03
2017-09-27T01:39:22.344Z,5.10
2017-09-27T01:41:24.777Z,5.10
2017-09-27T01:43:27.216Z,4.97
2017-09-27T01:45:29.724Z,4.93
2017-09-27T01:47:32.155Z,5.10
2017-09-27T01:49:34.699Z,5.20
2017-09-27T01:51:37.166Z,5.40
2017-09-27T01:53:39.604Z,5.93
2017-09-27T01:55:42.042Z,4.80
2017-09-27T01:57:44.492Z,4.83
2017-09-27T01:59:46.925Z,5.30
2017-09-27T02:01:49.357Z,4.90
2017-09-27T02:03:51.892Z,5.70
2017-09-27T02:05:54.331Z,5.40
2017-09-27T02:07:56.836Z,5.33
2017-09-27T02:09:59.295Z,5.80
2017-09-27T02:12:01.768Z,4.97
2017-09-27T02:14:04.231Z,5.20
2017-09-27T02:16:06.684Z,5.20
2017-09-27T02:18:09.112Z,4.70
2017-09-27T02:20:11.657Z,5.57
2017-09-27T02:22:14.224Z,4.97
2017-09-27T02:24:16.668Z,4.93
2017-09-27T02:26:19.153Z,4.97
2017-09-27T02:28:21.608Z,5.40
2017-09-27T02:30:24.044Z,5.43
2017-09-27T02:32:26.478Z,5.87
2017-09-27T02:34:28.941Z,5.10
2017-09-27T02:36:31.367Z,5.57
2017-09-27T02:38:33.944Z,5.27
2017-09-27T02:40:36.460Z,4.77
2017-09-27T02:42:38.910Z,5.63
2017-09-27T02:44:41.343Z,5.33
2017-09-27T02:46:43.822Z,5.23
2017-09-27T02:48:46.266Z,5.57
2017-09-27T02:50:48.754Z,5.00
2017-09-27T02:52:51.208Z,5.10
2017-09-27T02:54:53.752Z,5.10
2017-09-27T02:56:56.184Z,5.60
2017-09-27T02:58:58.676Z,5.50
2017-09-27T03:01:01.110Z,4.80
2017-09-27T03:03:03.544Z,4.90
2017-09-27T03:05:06.013Z,4.47
2017-09-27T03:07:08.460Z,4.40
2017-09-27T03:09:10.896Z,4.77
2017-09-27T03:11:13.374Z,4.83
2017-09-27T03:13:15.872Z,5.20
2017-09-27T03:15:18.315Z,4.50
2017-09-27T03:17:20.796Z,4.60
2017-09-27T03:19:23.281Z,5.50
2017-09-27T03:21:25.748Z,5.33
2017-09-27T03:23:28.208Z,4.90
2017-09-27T03:25:30.692Z,5.20
2017-09-27T03:27:33.135Z,5.73
2017-09-27T03:29:35.634Z,5.30
2017-09-27T03:31:38.073Z,4.80
2017-09-27T03:33:40.573Z,4.73
2017-09-27T03:35:43.339Z,4.47
2017-09-27T03:37:45.782Z,4.70
2017-09-27T03:39:48.499Z,4.50
2017-09-27T03:41:51.069Z,5.03
2017-09-27T03:43:53.533Z,5.13
2017-09-27T03:45:56.070Z,5.33
2017-09-27T03:47:58.552Z,5.13
2017-09-27T03:50:01.057Z,4.60
2017-09-27T03:52:03.506Z,4.90
2017-09-27T03:54:06.001Z,4.50
2017-09-27T03:56:08.463Z,4.53
2017-09-27T03:58:10.893Z,4.80
2017-09-27T04:00:13.410Z,4.83
2017-09-27T04:02:15.849Z,5.20
2017-09-27T04:04:18.284Z,5.00
2017-09-27T04:06:20.813Z,5.67
2017-09-27T04:08:23.248Z,4.97
2017-09-27T04:10:25.688Z,5.30
2017-09-27T04:12:28.234Z,4.93
2017-09-27T04:14:30.729Z,4.67
2017-09-27T04:16:33.178Z,4.70
2017-09-27T04:18:35.639Z,5.80
2017-09-27T04:20:38.103Z,4.10
2017-09-27T04:22:40.574Z,4.80
2017-09-27T04:24:43.030Z,4.80
2017-09-27T04:26:45.464Z,5.40
2017-09-27T04:28:48.004Z,5.00
2017-09-27T04:30:50.569Z,5.30
2017-09-27T04:32:53.000Z,5.03
2017-09-27T04:34:55.454Z,5.23
2017-09-27T04:36:57.963Z,5.23
2017-09-27T04:39:00.447Z,4.67
2017-09-27T04:41:03.206Z,5.10
2017-09-27T04:43:05.683Z,4.90
2017-09-27T04:45:08.118Z,4.97
2017-09-27T04:47:10.572Z,4.93
2017-09-27T04:49:13.036Z,5.17
2017-09-27T04:51:15.483Z,4.90
2017-09-27T04:53:17.912Z,4.63
2017-09-27T04:55:20.369Z,5.47
2017-09-27T04:57:22.795Z,5.27
2017-09-27T04:59:25.224Z,5.30
2017-09-27T05:01:27.704Z,5.20
2017-09-27T05:03:30.189Z,5.03
2017-09-27T05:05:32.630Z,5.10
2017-09-27T05:07:35.116Z,4.83
2017-09-27T05:09:37.546Z,4.80
2017-09-27T05:11:39.987Z,5.07
2017-09-27T05:13:42.439Z,4.63
2017-09-27T05:15:44.913Z,4.90
2017-09-27T05:17:47.376Z,5.73
2017-09-27T05:19:49.826Z,5.10
2017-09-27T05:21:52.266Z,4.40
2017-09-27T05:23:54.706Z,5.00
2017-09-27T05:25:57.192Z,5.17
2017-09-27T05:27:59.628Z,5.20
2017-09-27T05:30:02.094Z,5.27
2017-09-27T05:32:04.657Z,4.70
2017-09-27T05:34:07.092Z,5.07
2017-09-27T05:36:09.532Z,5.10
2017-09-27T05:38:12.032Z,4.80
2017-09-27T05:40:14.539Z,5.03
2017-09-27T05:42:17.120Z,5.60
2017-09-27T05:44:19.573Z,4.77
2017-09-27T05:46:22.824Z,5.90
2017-09-27T05:48:25.346Z,5.30
2017-09-27T05:50:27.817Z,4.90
2017-09-27T05:52:30.245Z,4.70
2017-09-27T05:54:32.751Z,5.10
2017-09-27T05:56:35.201Z,5.20
2017-09-27T05:58:37.702Z,5.20
2017-09-27T06:00:40.141Z,5.50
2017-09-27T06:02:42.620Z,5.63
2017-09-27T06:04:45.066Z,5.07
2017-09-27T06:06:47.502Z,4.80
2017-09-27T06:08:50.045Z,5.67
2017-09-27T06:10:52.482Z,5.97
2017-09-27T06:12:54.923Z,5.03
2017-09-27T06:14:57.382Z,5.13
2017-09-27T06:16:59.812Z,5.40
2017-09-27T06:19:02.348Z,5.57
2017-09-27T06:21:04.826Z,5.27
2017-09-27T06:23:07.281Z,5.90
2017-09-27T06:25:09.719Z,5.60
2017-09-27T06:27:12.181Z,6.20
2017-09-27T06:29:14.620Z,5.63
2017-09-27T06:31:17.064Z,5.50
2017-09-27T06:33:19.541Z,6.03
2017-09-27T06:35:21.977Z,7.00
2017-09-27T06:37:24.416Z,6.60
2017-09-27T06:39:26.868Z,5.87
2017-09-27T06:41:29.311Z,5.97
2017-09-27T06:43:31.798Z,6.33
2017-09-27T06:45:34.248Z,6.70
2017-09-27T06:47:36.681Z,6.60
2017-09-27T06:49:39.124Z,6.70
2017-09-27T06:51:41.584Z,6.33
2017-09-27T06:53:44.030Z,6.57
2017-09-27T06:55:46.469Z,7.03
2017-09-27T06:57:48.965Z,7.70
2017-09-27T06:59:51.395Z,6.40
2017-09-27T07:01:53.827Z,6.43
2017-09-27T07:03:56.285Z,7.30
2017-09-27T07:05:58.720Z,7.00
2017-09-27T07:08:01.150Z,5.80
2017-09-27T07:10:03.599Z,6.00
2017-09-27T07:12:06.033Z,6.13
2017-09-27T07:14:08.485Z,6.27
2017-09-27T07:16:10.962Z,7.60
2017-09-27T07:18:13.415Z,6.40
2017-09-27T07:20:15.865Z,6.90
2017-09-27T07:22:18.483Z,6.83
2017-09-27T07:24:20.945Z,6.50
2017-09-27T07:26:23.381Z,5.63
2017-09-27T07:28:25.861Z,6.27
2017-09-27T07:30:28.327Z,6.70
2017-09-27T07:32:30.776Z,6.67
2017-09-27T07:34:33.244Z,6.00
2017-09-27T07:36:35.688Z,6.70
2017-09-27T07:38:38.121Z,5.87
2017-09-27T07:40:40.588Z,6.50
2017-09-27T07:42:43.029Z,6.60
2017-09-27T07:44:45.604Z,7.23
2017-09-27T07:46:48.069Z,5.97
2017-09-27T07:48:50.497Z,5.97
2017-09-27T07:50:52.958Z,6.43
2017-09-27T07:52:55.423Z,7.60
2017-09-27T07:54:57.873Z,9.60
2017-09-27T07:57:00.320Z,8.53
2017-09-27T07:59:02.797Z,8.50
2017-09-27T08:01:05.245Z,8.60
2017-09-27T08:03:07.680Z,8.57
2017-09-27T08:05:10.360Z,9.40
2017-09-27T08:07:12.916Z,10.83
2017-09-27T08:09:15.364Z,9.50
2017-09-27T08:11:17.850Z,10.43
2017-09-27T08:13:20.294Z,9.13
2017-09-27T08:15:22.765Z,9.80
2017-09-27T08:17:25.235Z,9.93
2017-09-27T08:19:27.748Z,10.07
2017-09-27T08:21:30.204Z,10.50
2017-09-27T08:23:32.663Z,10.57
2017-09-27T08:25:35.286Z,10.30
2017-09-27T08:27:37.733Z,10.93
2017-09-27T08:29:40.284Z,10.33
2017-09-27T08:31:42.725Z,10.30
2017-09-27T08:33:45.165Z,11.40
2017-09-27T08:35:47.641Z,10.90
2017-09-27T09:53:22.189Z,9.03
2017-09-27T09:55:24.653Z,9.83
2017-09-27T09:57:27.098Z,9.00
2017-09-27T09:59:29.557Z,8.90
2017-09-27T10:01:31.997Z,8.97
2017-09-27T10:03:34.438Z,8.93
2017-09-27T10:05:36.905Z,9.53
2017-09-27T10:07:39.344Z,9.10
2017-09-27T10:09:41.791Z,8.70
2017-09-27T10:11:44.276Z,8.00
2017-09-27T10:13:46.739Z,9.17
2017-09-27T10:15:49.182Z,8.60
2017-09-27T10:17:51.649Z,9.93
2017-09-27T10:19:54.089Z,8.57
2017-09-27T10:21:56.533Z,8.07
2017-09-27T10:23:59.012Z,8.47
2017-09-27T10:26:01.464Z,8.47
2017-09-27T10:28:03.908Z,8.70
2017-09-27T10:30:06.380Z,8.63
2017-09-27T10:32:08.839Z,8.40
2017-09-27T10:34:11.276Z,9.00
2017-09-27T10:36:13.739Z,8.80
2017-09-27T10:38:16.177Z,8.93
2017-09-27T10:40:18.637Z,9.03
2017-09-27T10:42:21.212Z,8.80
2017-09-27T10:44:23.648Z,8.27
2017-09-27T10:46:26.112Z,9.10
2017-09-27T10:48:28.683Z,7.77
2017-09-27T10:50:31.128Z,8.73
2017-09-27T10:52:33.601Z,8.90
2017-09-27T10:54:36.118Z,8.50
2017-09-27T10:56:38.557Z,8.23
2017-09-27T10:58:41.001Z,8.13
2017-09-27T11:00:43.464Z,8.23
2017-09-27T11:02:45.977Z,9.60
2017-09-27T11:04:48.421Z,8.43
2017-09-27T11:06:50.875Z,8.43
2017-09-27T11:08:53.308Z,7.90
2017-09-27T11:10:55.740Z,9.13
2017-09-27T11:12:58.208Z,7.80
2017-09-27T11:15:00.691Z,8.97
2017-09-27T11:17:03.132Z,8.53
2017-09-27T11:19:05.608Z,8.60
2017-09-27T11:21:08.058Z,9.33
2017-09-27T11:23:10.526Z,8.80
2017-09-27T11:25:13.027Z,8.20
2017-09-27T11:27:15.476Z,8.87
2017-09-27T11:29:17.913Z,8.37
2017-09-27T11:31:20.423Z,8.50
2017-09-27T11:33:22.868Z,7.50
2017-09-27T11:35:25.375Z,8.40
2017-09-27T11:37:27.845Z,8.53
2017-09-27T11:39:30.324Z,8.07
2017-09-27T11:41:32.778Z,8.53
2017-09-27T11:43:35.247Z,8.83
2017-09-27T11:45:37.722Z,8.90
2017-09-27T11:47:40.169Z,7.60
2017-09-27T11:49:42.633Z,7.63
2017-09-27T11:51:45.072Z,9.63
2017-09-27T11:53:47.628Z,7.33
2017-09-27T11:55:50.284Z,8.30
2017-09-27T11:57:52.726Z,8.20
2017-09-27T11:59:55.181Z,7.80
2017-09-27T12:01:57.683Z,8.80
2017-09-27T12:04:00.124Z,8.40
2017-09-27T12:06:02.585Z,7.87
2017-09-27T12:08:05.081Z,8.50
2017-09-27T12:10:07.524Z,8.33
2017-09-27T12:12:10.954Z,9.10
2017-09-27T12:14:13.413Z,8.77
2017-09-27T12:16:15.863Z,7.70
2017-09-27T12:18:18.308Z,8.43
2017-09-27T12:20:20.780Z,7.97
2017-09-27T12:22:23.255Z,8.23
2017-09-27T12:24:25.706Z,8.27
2017-09-27T12:26:28.167Z,8.77
2017-09-27T12:28:30.607Z,8.73
2017-09-27T12:30:33.106Z,8.27
2017-09-27T12:32:35.676Z,9.10
2017-09-27T12:34:38.117Z,9.30
2017-09-27T12:36:40.566Z,7.70
2017-09-27T12:38:43.029Z,7.87
2017-09-27T12:40:45.496Z,8.53
2017-09-27T12:42:47.937Z,7.70
2017-09-27T12:44:50.395Z,8.47
2017-09-27T12:46:52.836Z,8.47
2017-09-27T12:48:55.280Z,7.87
2017-09-27T12:50:57.737Z,8.10
2017-09-27T12:53:00.172Z,8.17
2017-09-27T12:55:02.613Z,8.73
2017-09-27T12:57:05.118Z,7.50
2017-09-27T12:59:07.561Z,8.03
2017-09-27T13:01:10.025Z,7.73
2017-09-27T13:03:12.521Z,8.17
2017-09-27T13:05:14.963Z,8.50
2017-09-27T13:07:17.404Z,8.73
2017-09-27T13:09:19.876Z,8.17
2017-09-27T13:11:22.322Z,7.40
2017-09-27T13:13:24.794Z,8.70
2017-09-27T13:15:27.268Z,8.67
2017-09-27T13:17:29.731Z,8.30
2017-09-27T13:19:33.078Z,7.27
2017-09-27T13:21:35.569Z,8.13
2017-09-27T13:23:38.004Z,8.47
2017-09-27T13:25:40.438Z,10.70
2017-09-27T13:27:42.921Z,11.60
2017-09-27T13:29:45.349Z,9.70
2017-09-27T13:31:47.805Z,8.40
2017-09-27T13:33:50.277Z,8.87
2017-09-27T13:35:52.716Z,8.57
2017-09-27T13:37:55.162Z,8.63
2017-09-27T13:39:57.621Z,8.80
2017-09-27T13:42:00.075Z,9.70
2017-09-27T13:44:02.534Z,8.67
2017-09-27T13:46:05.036Z,8.73
2017-09-27T13:48:07.488Z,8.20
2017-09-27T13:50:09.944Z,8.30
2017-09-27T13:52:12.413Z,8.17
2017-09-27T13:54:14.853Z,8.70
2017-09-27T13:56:17.300Z,8.03
2017-09-27T13:58:19.844Z,7.73
2017-09-27T14:00:22.284Z,8.37
2017-09-27T14:02:24.716Z,7.97
2017-09-27T14:04:27.186Z,8.10
2017-09-27T14:06:29.630Z,7.77
2017-09-27T14:08:32.078Z,8.07
2017-09-27T14:10:34.539Z,7.50
2017-09-27T14:12:37.000Z,7.77
2017-09-27T14:14:39.457Z,8.80
2017-09-27T14:16:41.916Z,7.50
2017-09-27T14:18:44.358Z,7.13
2017-09-27T14:20:46.805Z,8.13
2017-09-27T14:22:49.342Z,7.60
2017-09-27T14:24:51.796Z,7.67
2017-09-27T14:26:54.244Z,8.13
2017-09-27T14:28:56.713Z,8.07
2017-09-27T14:30:59.151Z,8.47
2017-09-27T14:33:01.599Z,7.80
2017-09-27T14:35:04.064Z,8.50
2017-09-27T14:37:06.520Z,8.03
2017-09-27T14:39:08.961Z,7.50
2017-09-27T14:41:11.451Z,8.57
2017-09-27T14:43:13.888Z,8.23
2017-09-27T14:45:16.334Z,8.63
2017-09-27T14:47:18.802Z,8.57
2017-09-27T14:49:21.250Z,7.33
2017-09-27T14:51:23.689Z,7.33
2017-09-27T14:53:26.149Z,7.97
2017-09-27T14:55:28.614Z,8.23
2017-09-27T14:57:31.058Z,6.77
2017-09-27T14:59:33.560Z,7.43
2017-09-27T15:01:36.027Z,8.17
2017-09-27T15:03:38.464Z,7.60
2017-09-27T15:05:40.965Z,7.87
2017-09-27T15:07:43.401Z,8.00
2017-09-27T15:09:45.850Z,8.80
2017-09-27T15:11:48.318Z,8.20
2017-09-27T15:13:51.705Z,7.60
2017-09-27T15:15:54.146Z,7.10
2017-09-27T15:17:56.616Z,7.97
2017-09-27T15:19:59.052Z,8.10
2017-09-27T15:22:01.489Z,7.10
2017-09-27T15:24:03.963Z,7.07
2017-09-27T15:26:06.413Z,8.03
2017-09-27T15:28:08.845Z,8.60
2017-09-27T15:30:11.321Z,6.87
2017-09-27T15:32:13.764Z,8.00
2017-09-27T15:34:16.205Z,7.20
2017-09-27T15:36:18.675Z,6.63
2017-09-27T15:38:21.130Z,6.87
2017-09-27T15:40:23.573Z,7.43
2017-09-27T15:42:26.034Z,9.13
2017-09-27T15:44:28.494Z,6.90
2017-09-27T15:46:30.929Z,7.67
2017-09-27T15:48:33.392Z,7.10
2017-09-27T15:50:36.782Z,7.73
2017-09-27T15:52:39.223Z,6.83
2017-09-27T15:54:41.694Z,6.93
2017-09-27T15:56:44.154Z,7.27
2017-09-27T15:58:46.599Z,7.87
2017-09-27T16:00:49.142Z,7.43
2017-09-27T16:02:51.598Z,7.23
2017-09-27T16:04:54.055Z,6.90
2017-09-27T16:06:56.526Z,8.57
2017-09-27T16:08:58.964Z,7.50
2017-09-27T16:11:01.417Z,7.23
2017-09-27T16:13:03.896Z,7.60
2017-09-27T16:15:06.336Z,7.50
2017-09-27T16:17:08.784Z,7.77
2017-09-27T16:19:11.291Z,6.93
2017-09-27T16:21:13.757Z,7.00
2017-09-27T16:23:16.233Z,6.70
2017-09-27T16:25:18.697Z,6.53
2017-09-27T16:27:21.137Z,7.67
2017-09-27T16:29:23.586Z,6.80
2017-09-27T16:31:26.121Z,7.40
2017-09-27T16:33:28.568Z,7.17
2017-09-27T16:35:31.016Z,6.60
2017-09-27T16:37:33.477Z,7.13
2017-09-27T16:39:35.961Z,6.50
2017-09-27T16:41:38.388Z,6.90
2017-09-27T16:43:40.940Z,6.90
2017-09-27T16:45:43.401Z,7.13
2017-09-27T16:47:45.860Z,7.20
2017-09-27T16:49:48.326Z,6.30
2017-09-27T16:51:50.773Z,7.73
2017-09-27T16:53:53.217Z,7.00
2017-09-27T16:55:55.682Z,6.90
2017-09-27T16:57:58.225Z,6.30
2017-09-27T17:00:00.670Z,8.60
2017-09-27T17:02:03.264Z,7.63
2017-09-27T17:04:05.700Z,6.23
2017-09-27T17:06:08.308Z,7.53
2017-09-27T17:08:10.782Z,6.50
2017-09-27T17:10:13.220Z,6.83
2017-09-27T17:12:15.735Z,6.80
2017-09-27T17:14:18.213Z,6.80
2017-09-27T17:16:20.830Z,6.50
2017-09-27T17:18:23.264Z,6.23
2017-09-27T17:20:25.723Z,6.67
2017-09-27T17:22:28.165Z,6.97
2017-09-27T17:24:30.602Z,7.33
2017-09-27T17:26:33.071Z,7.40
2017-09-27T17:28:35.607Z,6.83
2017-09-27T17:30:38.044Z,6.63
2017-09-27T17:32:40.625Z,7.17
2017-09-27T17:34:43.059Z,6.60
2017-09-27T17:36:45.510Z,6.90
2017-09-27T17:38:47.984Z,6.97
2017-09-27T17:40:50.418Z,7.43
2017-09-27T17:42:52.917Z,6.97
2017-09-27T17:44:55.387Z,6.20
2017-09-27T17:46:57.842Z,6.10
2017-09-27T17:49:00.277Z,7.00
2017-09-27T17:51:02.764Z,7.07
2017-09-27T17:53:05.215Z,6.67
2017-09-27T17:55:07.661Z,7.27
2017-09-27T17:57:10.160Z,6.30
2017-09-27T17:59:12.587Z,6.43
2017-09-27T18:01:15.039Z,7.40
2017-09-27T18:03:17.592Z,6.73
2017-09-27T18:05:25.776Z,5.77
2017-09-27T18:07:33.850Z,6.53
2017-09-27T18:09:36.325Z,7.23
2017-09-27T18:14:37.701Z,6.20
2017-09-27T18:16:43.602Z,6.57
2017-09-27T18:18:47.844Z,7.20
2017-09-27T18:20:50.329Z,6.20
2017-09-27T18:22:52.764Z,7.07
2017-09-27T18:24:55.223Z,6.07
2017-09-27T18:26:57.700Z,6.83
2017-09-27T18:29:00.134Z,6.33
2017-09-27T18:31:02.576Z,6.20
2017-09-27T18:33:05.037Z,6.70
2017-09-27T18:35:07.476Z,6.20
2017-09-27T18:37:09.913Z,6.60
2017-09-27T18:39:12.368Z,6.30
2017-09-27T18:41:14.860Z,6.40
2017-09-27T18:43:17.408Z,6.20
2017-09-27T18:45:19.909Z,5.97
2017-09-27T18:47:23.813Z,5.97
2017-09-27T18:49:26.669Z,6.03
2017-09-27T18:51:29.209Z,6.77
2017-09-27T18:53:31.681Z,6.10
2017-09-27T18:55:34.126Z,6.60
2017-09-27T18:57:36.594Z,5.63
2017-09-27T18:59:39.053Z,6.10
2017-09-27T19:01:41.480Z,6.30
2017-09-27T19:03:44.057Z,5.70
2017-09-27T19:05:46.509Z,6.57
2017-09-27T19:07:49.008Z,6.07
2017-09-27T19:09:51.467Z,6.80
2017-09-27T19:11:53.913Z,6.30
2017-09-27T19:13:56.348Z,7.07
2017-09-27T19:15:58.818Z,6.60
2017-09-27T19:18:01.327Z,6.27
2017-09-27T19:20:03.836Z,5.80
2017-09-27T19:22:06.298Z,6.60
2017-09-27T19:24:08.732Z,5.73
2017-09-27T19:26:11.241Z,5.50
2017-09-27T19:28:13.713Z,6.63
2017-09-27T19:30:16.161Z,5.90
2017-09-27T19:32:18.600Z,5.90
2017-09-27T19:34:21.074Z,5.67
2017-09-27T19:36:23.527Z,6.37
2017-09-27T19:38:25.965Z,5.90
2017-09-27T19:40:28.417Z,6.40
2017-09-27T19:42:30.909Z,6.27
2017-09-27T19:44:33.349Z,6.50
2017-09-27T19:46:35.832Z,5.80
2017-09-27T19:48:38.270Z,6.27
2017-09-27T19:50:40.782Z,6.40
2017-09-27T19:52:43.247Z,5.50
2017-09-27T19:54:45.721Z,5.77
2017-09-27T19:56:48.157Z,5.90
2017-09-27T19:58:50.664Z,5.97
2017-09-27T20:00:53.127Z,6.43
2017-09-27T20:02:55.610Z,6.50
2017-09-27T20:04:58.289Z,5.90
2017-09-27T20:07:00.738Z,5.80
2017-09-27T20:09:03.198Z,5.90
2017-09-27T20:11:05.665Z,5.37
2017-09-27T20:13:08.161Z,6.57
2017-09-27T20:15:10.634Z,6.23
2017-09-27T20:17:13.203Z,5.90
2017-09-27T20:19:15.667Z,6.00
2017-09-27T20:21:18.120Z,6.30
2017-09-27T20:23:20.593Z,6.40
2017-09-27T20:25:23.086Z,5.50
2017-09-27T20:27:25.654Z,5.77
2017-09-27T20:29:28.112Z,5.70
2017-09-27T20:31:30.599Z,5.50
2017-09-27T20:33:33.089Z,6.50
2017-09-27T20:35:35.582Z,6.00
2017-09-27T20:37:38.025Z,4.90
2017-09-27T20:39:40.477Z,5.93
2017-09-27T20:41:42.941Z,6.03
2017-09-27T20:43:45.381Z,5.93
2017-09-27T20:45:47.880Z,6.00
2017-09-27T20:47:50.332Z,6.10
2017-09-27T20:49:52.760Z,5.63
2017-09-27T20:51:55.315Z,5.50
2017-09-27T20:53:57.769Z,5.80
2017-09-27T20:56:00.205Z,5.00
2017-09-27T20:58:02.653Z,5.60
2017-09-27T21:00:05.172Z,5.87
2017-09-27T21:02:07.612Z,5.60
2017-09-27T21:04:10.116Z,5.83
2017-09-27T21:06:12.678Z,5.27
2017-09-27T21:08:15.112Z,5.80
2017-09-27T21:10:17.553Z,5.43
2017-09-27T21:12:20.023Z,5.90
2017-09-27T21:14:22.580Z,6.07
2017-09-27T21:16:25.044Z,6.40
2017-09-27T21:18:27.508Z,6.10
2017-09-27T21:20:29.946Z,5.53
2017-09-27T21:22:32.377Z,5.57
2017-09-27T21:24:34.840Z,6.57
2017-09-27T21:26:37.289Z,6.07
2017-09-27T21:28:39.740Z,5.47
2017-09-27T21:30:42.233Z,6.10
2017-09-27T21:32:44.665Z,5.43
2017-09-27T21:34:47.108Z,5.43
2017-09-27T21:36:49.564Z,5.97
2017-09-27T21:38:52.011Z,5.30
2017-09-27T21:40:54.460Z,6.00
2017-09-27T21:42:56.930Z,5.83
2017-09-27T21:44:59.388Z,5.70
2017-09-27T21:47:01.832Z,5.30
2017-09-27T21:49:04.288Z,5.57
2017-09-27T21:51:06.732Z,5.90
2017-09-27T21:53:09.211Z,6.30
2017-09-27T21:55:11.692Z,5.70
2017-09-27T21:57:14.131Z,5.87
2017-09-27T21:59:16.581Z,5.53
2017-09-27T22:01:19.141Z,5.83
2017-09-27T22:03:21.584Z,5.60
2017-09-27T22:05:24.035Z,5.40
2017-09-27T22:07:26.677Z,5.57
2017-09-27T22:09:29.117Z,6.10
2017-09-27T22:11:31.554Z,5.80
2017-09-27T22:13:34.019Z,5.27
2017-09-27T22:15:36.456Z,5.90
2017-09-27T22:17:38.896Z,5.60
2017-09-27T22:19:41.414Z,5.70
2017-09-27T22:21:43.888Z,6.23
2017-09-27T22:23:46.356Z,6.00
2017-09-27T22:25:48.816Z,5.93
2017-09-27T22:27:51.252Z,5.37
2017-09-27T22:29:53.762Z,6.10
2017-09-27T22:31:56.219Z,5.47
2017-09-27T22:33:58.705Z,5.37
2017-09-27T22:36:01.154Z,5.80
2017-09-27T22:38:03.616Z,6.03
2017-09-27T22:40:06.048Z,5.77
2017-09-27T22:42:08.581Z,6.17
2017-09-27T22:44:11.042Z,5.50
2017-09-27T22:46:13.474Z,6.10
2017-09-27T22:48:15.935Z,5.80
2017-09-27T22:50:18.410Z,6.67
2017-09-27T22:52:20.877Z,5.20
2017-09-27T22:54:23.321Z,5.20
2017-09-27T22:56:25.780Z,5.83
2017-09-27T22:58:28.240Z,5.70
2017-09-27T23:00:30.694Z,6.17
2017-09-27T23:02:33.246Z,5.63
2017-09-27T23:04:35.678Z,5.93
2017-09-27T23:06:38.230Z,5.87
2017-09-27T23:08:40.721Z,5.90
2017-09-27T23:10:43.163Z,5.70
2017-09-27T23:12:45.606Z,6.00
2017-09-27T23:14:48.077Z,5.77
2017-09-27T23:16:50.585Z,5.50
2017-09-27T23:18:53.024Z,5.90
2017-09-27T23:20:55.477Z,5.40
2017-09-27T23:22:58.807Z,6.50
2017-09-27T23:25:01.268Z,5.50
2017-09-27T23:27:03.717Z,5.80
2017-09-27T23:29:06.176Z,6.00
2017-09-27T23:31:08.750Z,6.10
2017-09-27T23:33:11.266Z,5.90
2017-09-27T23:35:13.709Z,6.37
2017-09-27T23:37:16.165Z,5.40
2017-09-27T23:39:18.636Z,6.00
2017-09-27T23:41:21.152Z,5.47
2017-09-27T23:43:23.591Z,6.90
2017-09-27T23:45:26.095Z,6.30
2017-09-27T23:47:28.527Z,5.73
2017-09-27T23:49:30.965Z,5.70
2017-09-27T23:51:33.421Z,5.60
2017-09-27T23:53:35.852Z,5.80
2017-09-27T23:55:38.325Z,5.90
2017-09-27T23:57:40.790Z,5.20
2017-09-27T23:59:43.228Z,5.40
